sensor_id;sensor_type;location;lat;lon;timestamp;pressure;altitude;pressure_sealevel;temperature;humidity
62779;BME280;48821;48.796;2.396;2023-03-26T00:01:11;100662.19;;;13.69;52.50
62779;BME280;48821;48.796;2.396;2023-03-26T00:02:25;100653.41;;;13.68;52.50
62779;BME280;48821;48.796;2.396;2023-03-26T00:03:42;100652.47;;;13.69;52.64
62779;BME280;48821;48.796;2.396;2023-03-26T00:04:56;100654.34;;;13.67;52.59
62779;BME280;48821;48.796;2.396;2023-03-26T00:06:12;100653.47;;;13.67;52.35
62779;BME280;48821;48.796;2.396;2023-03-26T00:07:26;100645.66;;;13.65;52.72
62779;BME280;48821;48.796;2.396;2023-03-26T00:08:41;100637.72;;;13.65;53.27
62779;BME280;48821;48.796;2.396;2023-03-26T00:09:54;100633.34;;;13.64;53.61
62779;BME280;48821;48.796;2.396;2023-03-26T00:11:12;100628.06;;;13.64;53.46
62779;BME280;48821;48.796;2.396;2023-03-26T00:12:26;100619.38;;;13.62;53.62
62779;BME280;48821;48.796;2.396;2023-03-26T00:13:40;100622.94;;;13.61;53.24
62779;BME280;48821;48.796;2.396;2023-03-26T00:14:52;100620.28;;;13.61;53.67
62779;BME280;48821;48.796;2.396;2023-03-26T00:16:04;100619.44;;;13.60;53.61
62779;BME280;48821;48.796;2.396;2023-03-26T00:17:14;100619.50;;;13.59;54.00
62779;BME280;48821;48.796;2.396;2023-03-26T00:18:26;100616.09;;;13.57;54.05
62779;BME280;48821;48.796;2.396;2023-03-26T00:19:43;100617.88;;;13.56;53.91
62779;BME280;48821;48.796;2.396;2023-03-26T00:20:55;100609.06;;;13.56;54.24
62779;BME280;48821;48.796;2.396;2023-03-26T00:22:07;100609.06;;;13.56;53.81
62779;BME280;48821;48.796;2.396;2023-03-26T00:23:23;100607.34;;;13.55;53.92
62779;BME280;48821;48.796;2.396;2023-03-26T00:24:36;100598.56;;;13.54;54.39
62779;BME280;48821;48.796;2.396;2023-03-26T00:25:51;100600.31;;;13.55;55.05
62779;BME280;48821;48.796;2.396;2023-03-26T00:27:05;100589.75;;;13.55;55.25
62779;BME280;48821;48.796;2.396;2023-03-26T00:28:22;100587.16;;;13.54;55.33
62779;BME280;48821;48.796;2.396;2023-03-26T00:29:35;100584.50;;;13.54;55.47
62779;BME280;48821;48.796;2.396;2023-03-26T00:30:55;100580.09;;;13.54;55.24
62779;BME280;48821;48.796;2.396;2023-03-26T00:32:09;100580.09;;;13.54;55.58
62779;BME280;48821;48.796;2.396;2023-03-26T00:33:22;100587.16;;;13.54;55.80
62779;BME280;48821;48.796;2.396;2023-03-26T00:34:33;100579.22;;;13.54;55.66
62779;BME280;48821;48.796;2.396;2023-03-26T00:35:45;100581.00;;;13.53;55.57
62779;BME280;48821;48.796;2.396;2023-03-26T00:36:59;100581.94;;;13.52;56.06
62779;BME280;48821;48.796;2.396;2023-03-26T00:38:13;100579.41;;;13.50;55.81
62779;BME280;48821;48.796;2.396;2023-03-26T00:39:27;100572.41;;;13.49;55.17
62779;BME280;48821;48.796;2.396;2023-03-26T00:40:38;100569.91;;;13.46;55.32
62779;BME280;48821;48.796;2.396;2023-03-26T00:41:56;100569.97;;;13.45;55.86
62779;BME280;48821;48.796;2.396;2023-03-26T00:43:09;100569.25;;;13.41;55.50
62779;BME280;48821;48.796;2.396;2023-03-26T00:44:31;100565.84;;;13.39;56.00
62779;BME280;48821;48.796;2.396;2023-03-26T00:45:52;100566.78;;;13.38;56.40
62779;BME280;48821;48.796;2.396;2023-03-26T00:47:06;100564.16;;;13.38;56.31
62779;BME280;48821;48.796;2.396;2023-03-26T00:48:21;100551.88;;;13.37;56.07
62779;BME280;48821;48.796;2.396;2023-03-26T00:49:32;100551.88;;;13.37;56.30
62779;BME280;48821;48.796;2.396;2023-03-26T00:50:45;100541.44;;;13.34;56.40
62779;BME280;48821;48.796;2.396;2023-03-26T00:51:56;100544.09;;;13.34;56.36
62779;BME280;48821;48.796;2.396;2023-03-26T00:53:08;100537.09;;;13.33;56.59
62779;BME280;48821;48.796;2.396;2023-03-26T00:54:24;100537.25;;;13.30;56.90
62779;BME280;48821;48.796;2.396;2023-03-26T00:55:37;100529.31;;;13.30;57.36
62779;BME280;48821;48.796;2.396;2023-03-26T00:56:50;100517.03;;;13.28;57.28
62779;BME280;48821;48.796;2.396;2023-03-26T00:58:08;100511.94;;;13.25;57.01
62779;BME280;48821;48.796;2.396;2023-03-26T00:59:24;100514.56;;;13.25;57.15
62779;BME280;48821;48.796;2.396;2023-03-26T01:00:46;100523.41;;;13.24;57.48
62779;BME280;48821;48.796;2.396;2023-03-26T01:02:03;100514.72;;;13.22;57.52
62779;BME280;48821;48.796;2.396;2023-03-26T01:03:17;100512.06;;;13.22;57.58
62779;BME280;48821;48.796;2.396;2023-03-26T01:04:32;100504.25;;;13.21;57.64
62779;BME280;48821;48.796;2.396;2023-03-26T01:05:49;100504.28;;;13.19;58.14
62779;BME280;48821;48.796;2.396;2023-03-26T01:07:11;100494.59;;;13.20;58.20
62779;BME280;48821;48.796;2.396;2023-03-26T01:08:34;100497.31;;;13.18;58.03
62779;BME280;48821;48.796;2.396;2023-03-26T01:09:50;100482.50;;;13.15;58.31
62779;BME280;48821;48.796;2.396;2023-03-26T01:12:48;100484.41;;;13.12;58.40
62779;BME280;48821;48.796;2.396;2023-03-26T01:14:05;100477.44;;;13.11;58.71
62779;BME280;48821;48.796;2.396;2023-03-26T01:15:20;100482.72;;;13.11;58.90
62779;BME280;48821;48.796;2.396;2023-03-26T01:16:43;100473.00;;;13.11;59.16
62779;BME280;48821;48.796;2.396;2023-03-26T01:17:57;100474.81;;;13.11;59.08
62779;BME280;48821;48.796;2.396;2023-03-26T01:20:39;100462.59;;;13.08;59.13
62779;BME280;48821;48.796;2.396;2023-03-26T01:21:58;100460.88;;;13.07;59.13
62779;BME280;48821;48.796;2.396;2023-03-26T01:23:16;100460.97;;;13.05;59.69
62779;BME280;48821;48.796;2.396;2023-03-26T01:24:31;100453.06;;;13.05;59.43
62779;BME280;48821;48.796;2.396;2023-03-26T01:25:49;100456.63;;;13.04;59.68
62779;BME280;48821;48.796;2.396;2023-03-26T01:27:26;100443.50;;;13.03;59.76
62779;BME280;48821;48.796;2.396;2023-03-26T01:28:41;100447.06;;;13.02;59.80
62779;BME280;48821;48.796;2.396;2023-03-26T01:30:04;100440.09;;;13.01;59.77
62779;BME280;48821;48.796;2.396;2023-03-26T01:31:35;100437.50;;;12.99;59.84
62779;BME280;48821;48.796;2.396;2023-03-26T01:33:15;100430.53;;;12.98;60.04
62779;BME280;48821;48.796;2.396;2023-03-26T01:35:07;100429.69;;;12.98;60.32
62779;BME280;48821;48.796;2.396;2023-03-26T01:36:35;100425.41;;;12.95;60.46
62779;BME280;48821;48.796;2.396;2023-03-26T01:38:27;100419.34;;;12.93;60.87
62779;BME280;48821;48.796;2.396;2023-03-26T01:39:54;100417.63;;;12.92;60.80
62779;BME280;48821;48.796;2.396;2023-03-26T01:41:31;100407.06;;;12.92;60.70
62779;BME280;48821;48.796;2.396;2023-03-26T01:42:59;100399.25;;;12.90;61.08
62779;BME280;48821;48.796;2.396;2023-03-26T01:44:38;100383.50;;;12.89;61.08
62779;BME280;48821;48.796;2.396;2023-03-26T01:45:55;100380.06;;;12.87;60.98
62779;BME280;48821;48.796;2.396;2023-03-26T01:47:12;100380.94;;;12.87;61.39
62779;BME280;48821;48.796;2.396;2023-03-26T01:48:30;100369.50;;;12.87;60.83
62779;BME280;48821;48.796;2.396;2023-03-26T01:49:45;100364.25;;;12.87;61.29
62779;BME280;48821;48.796;2.396;2023-03-26T01:50:58;100358.13;;;12.86;61.07
62779;BME280;48821;48.796;2.396;2023-03-26T01:52:16;100347.59;;;12.86;61.39
62779;BME280;48821;48.796;2.396;2023-03-26T01:53:32;100336.94;;;12.88;61.49
62779;BME280;48821;48.796;2.396;2023-03-26T01:54:47;100331.75;;;12.86;61.45
62779;BME280;48821;48.796;2.396;2023-03-26T02:00:36;100326.63;;;12.83;61.67
62779;BME280;48821;48.796;2.396;2023-03-26T02:02:06;100322.28;;;12.82;61.93
62779;BME280;48821;48.796;2.396;2023-03-26T02:03:30;100313.53;;;12.81;61.82
62779;BME280;48821;48.796;2.396;2023-03-26T02:05:02;100312.66;;;12.81;61.84
62779;BME280;48821;48.796;2.396;2023-03-26T02:06:30;100302.13;;;12.81;62.04
62779;BME280;48821;48.796;2.396;2023-03-26T02:08:30;100285.44;;;12.80;61.82
62779;BME280;48821;48.796;2.396;2023-03-26T02:09:44;100288.06;;;12.80;62.11
62779;BME280;48821;48.796;2.396;2023-03-26T02:11:02;100284.66;;;12.78;62.22
62779;BME280;48821;48.796;2.396;2023-03-26T02:12:18;100276.75;;;12.78;62.33
62779;BME280;48821;48.796;2.396;2023-03-26T02:13:33;100260.16;;;12.76;62.13
62779;BME280;48821;48.796;2.396;2023-03-26T02:14:46;100264.47;;;12.77;62.20
62779;BME280;48821;48.796;2.396;2023-03-26T02:16:01;100260.16;;;12.76;62.34
62779;BME280;48821;48.796;2.396;2023-03-26T02:17:15;100252.25;;;12.76;62.32
62779;BME280;48821;48.796;2.396;2023-03-26T02:18:28;100253.06;;;12.77;62.25
62779;BME280;48821;48.796;2.396;2023-03-26T02:19:51;100258.44;;;12.75;62.36
62779;BME280;48821;48.796;2.396;2023-03-26T02:21:17;100244.34;;;12.76;62.57
62779;BME280;48821;48.796;2.396;2023-03-26T02:22:33;100235.63;;;12.74;62.84
62779;BME280;48821;48.796;2.396;2023-03-26T02:23:55;100232.97;;;12.74;62.88
62779;BME280;48821;48.796;2.396;2023-03-26T02:25:17;100239.22;;;12.73;62.62
62779;BME280;48821;48.796;2.396;2023-03-26T02:26:33;100232.22;;;12.72;62.58
62779;BME280;48821;48.796;2.396;2023-03-26T02:27:49;100230.53;;;12.71;62.72
62779;BME280;48821;48.796;2.396;2023-03-26T02:29:02;100217.41;;;12.69;62.63
62779;BME280;48821;48.796;2.396;2023-03-26T02:30:19;100206.94;;;12.68;62.91
62779;BME280;48821;48.796;2.396;2023-03-26T02:31:32;100195.53;;;12.67;62.83
62779;BME280;48821;48.796;2.396;2023-03-26T02:32:45;100194.69;;;12.67;62.73
62779;BME280;48821;48.796;2.396;2023-03-26T02:33:58;100192.03;;;12.67;62.80
62779;BME280;48821;48.796;2.396;2023-03-26T02:35:12;100191.13;;;12.68;63.30
62779;BME280;48821;48.796;2.396;2023-03-26T02:36:25;100185.00;;;12.67;62.65
62779;BME280;48821;48.796;2.396;2023-03-26T02:37:39;100178.84;;;12.67;62.92
62779;BME280;48821;48.796;2.396;2023-03-26T02:38:54;100166.63;;;12.66;62.89
62779;BME280;48821;48.796;2.396;2023-03-26T02:40:09;100170.13;;;12.66;63.09
62779;BME280;48821;48.796;2.396;2023-03-26T02:41:23;100158.72;;;12.66;63.11
62779;BME280;48821;48.796;2.396;2023-03-26T02:42:37;100171.81;;;12.67;62.88
62779;BME280;48821;48.796;2.396;2023-03-26T02:43:50;100152.56;;;12.65;63.03
62779;BME280;48821;48.796;2.396;2023-03-26T02:45:05;100157.84;;;12.65;63.27
62779;BME280;48821;48.796;2.396;2023-03-26T02:46:18;100145.63;;;12.64;63.03
62779;BME280;48821;48.796;2.396;2023-03-26T02:47:31;100142.13;;;12.64;63.13
62779;BME280;48821;48.796;2.396;2023-03-26T02:48:45;100137.78;;;12.63;63.13
62779;BME280;48821;48.796;2.396;2023-03-26T02:49:58;100144.81;;;12.62;63.33
62779;BME280;48821;48.796;2.396;2023-03-26T02:51:11;100143.13;;;12.61;63.20
62779;BME280;48821;48.796;2.396;2023-03-26T02:52:25;100136.13;;;12.60;63.04
62779;BME280;48821;48.796;2.396;2023-03-26T02:53:38;100145.81;;;12.59;62.92
62779;BME280;48821;48.796;2.396;2023-03-26T02:54:53;100131.88;;;12.57;63.37
62779;BME280;48821;48.796;2.396;2023-03-26T02:56:06;100137.25;;;12.56;63.60
62779;BME280;48821;48.796;2.396;2023-03-26T02:57:20;100130.34;;;12.53;63.13
62779;BME280;48821;48.796;2.396;2023-03-26T02:58:33;100123.34;;;12.52;63.52
62779;BME280;48821;48.796;2.396;2023-03-26T02:59:46;100123.34;;;12.52;63.52
62779;BME280;48821;48.796;2.396;2023-03-26T03:01:02;100123.44;;;12.51;63.67
62779;BME280;48821;48.796;2.396;2023-03-26T03:02:15;100112.91;;;12.51;63.47
62779;BME280;48821;48.796;2.396;2023-03-26T03:03:30;100120.91;;;12.49;64.20
62779;BME280;48821;48.796;2.396;2023-03-26T03:04:43;100120.94;;;12.47;64.25
62779;BME280;48821;48.796;2.396;2023-03-26T03:05:56;100114.06;;;12.45;64.10
62779;BME280;48821;48.796;2.396;2023-03-26T03:07:07;100106.31;;;12.42;63.75
62779;BME280;48821;48.796;2.396;2023-03-26T03:08:21;100111.66;;;12.40;63.96
62779;BME280;48821;48.796;2.396;2023-03-26T03:09:34;100106.47;;;12.38;63.95
62779;BME280;48821;48.796;2.396;2023-03-26T03:11:09;100089.78;;;12.38;64.34
62779;BME280;48821;48.796;2.396;2023-03-26T03:12:23;100088.13;;;12.37;64.07
62779;BME280;48821;48.796;2.396;2023-03-26T03:13:36;100088.13;;;12.37;64.25
62779;BME280;48821;48.796;2.396;2023-03-26T03:14:49;100088.94;;;12.37;64.39
62779;BME280;48821;48.796;2.396;2023-03-26T03:16:03;100080.22;;;12.37;64.23
62779;BME280;48821;48.796;2.396;2023-03-26T03:17:16;100075.84;;;12.36;64.33
62779;BME280;48821;48.796;2.396;2023-03-26T03:18:31;100084.69;;;12.35;64.83
62779;BME280;48821;48.796;2.396;2023-03-26T03:19:45;100084.75;;;12.33;64.27
62779;BME280;48821;48.796;2.396;2023-03-26T03:20:58;100083.84;;;12.34;64.43
62779;BME280;48821;48.796;2.396;2023-03-26T03:22:11;100086.41;;;12.36;64.41
62779;BME280;48821;48.796;2.396;2023-03-26T03:23:25;100095.06;;;12.38;64.49
62779;BME280;48821;48.796;2.396;2023-03-26T03:24:38;100084.53;;;12.38;64.68
62779;BME280;48821;48.796;2.396;2023-03-26T03:25:51;100088.88;;;12.39;64.38
62779;BME280;48821;48.796;2.396;2023-03-26T03:27:05;100085.31;;;12.40;64.30
62779;BME280;48821;48.796;2.396;2023-03-26T03:28:18;100071.19;;;12.41;64.57
62779;BME280;48821;48.796;2.396;2023-03-26T03:29:32;100081.66;;;12.43;64.38
62779;BME280;48821;48.796;2.396;2023-03-26T03:30:45;100075.38;;;12.45;64.33
62779;BME280;48821;48.796;2.396;2023-03-26T03:31:59;100077.09;;;12.46;64.44
62779;BME280;48821;48.796;2.396;2023-03-26T03:33:12;100073.50;;;12.47;64.22
62779;BME280;48821;48.796;2.396;2023-03-26T03:34:26;100076.09;;;12.49;63.92
62779;BME280;48821;48.796;2.396;2023-03-26T03:35:39;100080.50;;;12.48;63.77
62779;BME280;48821;48.796;2.396;2023-03-26T03:36:53;100063.81;;;12.48;64.00
62779;BME280;48821;48.796;2.396;2023-03-26T03:38:06;100073.44;;;12.49;64.25
62779;BME280;48821;48.796;2.396;2023-03-26T03:39:19;100069.88;;;12.50;63.94
62779;BME280;48821;48.796;2.396;2023-03-26T03:40:33;100068.09;;;12.51;64.00
62779;BME280;48821;48.796;2.396;2023-03-26T03:41:46;100068.09;;;12.51;63.99
62779;BME280;48821;48.796;2.396;2023-03-26T03:42:59;100076.75;;;12.53;63.90
62779;BME280;48821;48.796;2.396;2023-03-26T03:44:12;100077.63;;;12.53;63.45
62779;BME280;48821;48.796;2.396;2023-03-26T03:45:25;100082.03;;;12.53;63.71
62779;BME280;48821;48.796;2.396;2023-03-26T03:46:38;100084.75;;;12.51;63.82
62779;BME280;48821;48.796;2.396;2023-03-26T03:47:52;100079.47;;;12.51;63.63
62779;BME280;48821;48.796;2.396;2023-03-26T03:49:05;100080.34;;;12.52;63.34
62779;BME280;48821;48.796;2.396;2023-03-26T03:50:19;100076.00;;;12.51;63.13
62779;BME280;48821;48.796;2.396;2023-03-26T03:51:32;100074.28;;;12.49;63.52
62779;BME280;48821;48.796;2.396;2023-03-26T03:52:47;100076.84;;;12.51;63.49
62779;BME280;48821;48.796;2.396;2023-03-26T03:54:00;100080.34;;;12.52;63.25
62779;BME280;48821;48.796;2.396;2023-03-26T03:55:13;100086.44;;;12.52;62.83
62779;BME280;48821;48.796;2.396;2023-03-26T03:56:27;100077.63;;;12.53;62.62
62779;BME280;48821;48.796;2.396;2023-03-26T03:57:41;100046.09;;;12.52;62.59
62779;BME280;48821;48.796;2.396;2023-03-26T03:58:54;100082.88;;;12.53;63.05
62779;BME280;48821;48.796;2.396;2023-03-26T04:00:08;100079.47;;;12.51;62.12
62779;BME280;48821;48.796;2.396;2023-03-26T04:01:23;100088.31;;;12.50;62.18
62779;BME280;48821;48.796;2.396;2023-03-26T04:02:37;100089.25;;;12.49;62.36
62779;BME280;48821;48.796;2.396;2023-03-26T04:03:50;100087.63;;;12.46;62.21
62779;BME280;48821;48.796;2.396;2023-03-26T04:05:04;100107.78;;;12.47;62.50
62779;BME280;48821;48.796;2.396;2023-03-26T04:06:18;100084.13;;;12.46;62.08
62779;BME280;48821;48.796;2.396;2023-03-26T04:07:31;100074.50;;;12.45;62.33
62779;BME280;48821;48.796;2.396;2023-03-26T04:08:45;100069.25;;;12.45;61.72
62779;BME280;48821;48.796;2.396;2023-03-26T04:09:59;100078.97;;;12.44;61.67
62779;BME280;48821;48.796;2.396;2023-03-26T04:11:13;100072.81;;;12.44;62.30
62779;BME280;48821;48.796;2.396;2023-03-26T04:12:27;100083.38;;;12.44;61.57
62779;BME280;48821;48.796;2.396;2023-03-26T04:13:41;100081.66;;;12.43;61.17
62779;BME280;48821;48.796;2.396;2023-03-26T04:14:54;100077.41;;;12.40;61.19
62779;BME280;48821;48.796;2.396;2023-03-26T04:16:08;100079.16;;;12.40;61.62
62779;BME280;48821;48.796;2.396;2023-03-26T04:17:22;100076.53;;;12.40;61.63
62779;BME280;48821;48.796;2.396;2023-03-26T04:18:35;100080.97;;;12.39;62.19
62779;BME280;48821;48.796;2.396;2023-03-26T04:19:50;100071.25;;;12.40;61.93
62779;BME280;48821;48.796;2.396;2023-03-26T04:21:06;100080.88;;;12.41;62.19
62779;BME280;48821;48.796;2.396;2023-03-26T04:22:20;100086.06;;;12.42;61.92
62779;BME280;48821;48.796;2.396;2023-03-26T04:23:34;100076.47;;;12.41;61.37
62779;BME280;48821;48.796;2.396;2023-03-26T04:24:47;100082.66;;;12.40;61.64
62779;BME280;48821;48.796;2.396;2023-03-26T04:26:04;100079.09;;;12.41;61.82
62779;BME280;48821;48.796;2.396;2023-03-26T04:27:23;100080.78;;;12.42;61.69
62779;BME280;48821;48.796;2.396;2023-03-26T04:28:48;100081.66;;;12.43;62.02
62779;BME280;48821;48.796;2.396;2023-03-26T04:30:03;100079.03;;;12.43;61.83
62779;BME280;48821;48.796;2.396;2023-03-26T04:31:20;100075.47;;;12.44;61.34
62779;BME280;48821;48.796;2.396;2023-03-26T04:32:36;100079.03;;;12.43;61.28
62779;BME280;48821;48.796;2.396;2023-03-26T04:33:51;100083.38;;;12.44;61.16
62779;BME280;48821;48.796;2.396;2023-03-26T04:35:10;100085.31;;;12.40;61.04
62779;BME280;48821;48.796;2.396;2023-03-26T04:36:28;100097.63;;;12.40;61.23
62779;BME280;48821;48.796;2.396;2023-03-26T04:37:42;100089.72;;;12.40;61.17
62779;BME280;48821;48.796;2.396;2023-03-26T04:38:59;100078.41;;;12.37;60.75
62779;BME280;48821;48.796;2.396;2023-03-26T04:40:20;100078.50;;;12.36;60.92
62779;BME280;48821;48.796;2.396;2023-03-26T04:41:33;100075.00;;;12.35;60.88
62779;BME280;48821;48.796;2.396;2023-03-26T04:42:47;100090.81;;;12.35;60.77
62779;BME280;48821;48.796;2.396;2023-03-26T04:44:00;100105.75;;;12.35;61.08
62779;BME280;48821;48.796;2.396;2023-03-26T04:45:16;100079.41;;;12.35;60.97
62779;BME280;48821;48.796;2.396;2023-03-26T04:46:34;100089.13;;;12.34;60.67
62779;BME280;48821;48.796;2.396;2023-03-26T04:47:47;100086.53;;;12.33;60.90
62779;BME280;48821;48.796;2.396;2023-03-26T04:49:02;100085.69;;;12.32;60.68
62779;BME280;48821;48.796;2.396;2023-03-26T04:50:15;100094.53;;;12.31;60.59
62779;BME280;48821;48.796;2.396;2023-03-26T04:51:35;100094.53;;;12.31;60.53
62779;BME280;48821;48.796;2.396;2023-03-26T04:52:52;100099.81;;;12.31;60.35
62779;BME280;48821;48.796;2.396;2023-03-26T04:54:07;100106.75;;;12.32;60.63
62779;BME280;48821;48.796;2.396;2023-03-26T04:55:28;100112.03;;;12.32;60.63
62779;BME280;48821;48.796;2.396;2023-03-26T04:56:46;100102.34;;;12.33;60.03
62779;BME280;48821;48.796;2.396;2023-03-26T04:58:01;100099.91;;;12.30;59.91
62779;BME280;48821;48.796;2.396;2023-03-26T04:59:22;100100.81;;;12.29;59.99
62779;BME280;48821;48.796;2.396;2023-03-26T05:00:38;100106.22;;;12.25;59.61
62779;BME280;48821;48.796;2.396;2023-03-26T05:01:52;100101.97;;;12.23;60.12
62779;BME280;48821;48.796;2.396;2023-03-26T05:03:08;100101.97;;;12.23;60.13
62779;BME280;48821;48.796;2.396;2023-03-26T05:04:22;100097.66;;;12.22;60.04
62779;BME280;48821;48.796;2.396;2023-03-26T05:05:37;100111.72;;;12.21;60.02
62779;BME280;48821;48.796;2.396;2023-03-26T05:06:50;100108.31;;;12.19;59.55
62779;BME280;48821;48.796;2.396;2023-03-26T05:08:04;100115.47;;;12.17;59.92
62779;BME280;48821;48.796;2.396;2023-03-26T05:09:18;100104.16;;;12.14;59.81
62779;BME280;48821;48.796;2.396;2023-03-26T05:10:31;100120.78;;;12.15;59.77
62779;BME280;48821;48.796;2.396;2023-03-26T05:11:44;100127.84;;;12.14;59.51
62779;BME280;48821;48.796;2.396;2023-03-26T05:12:58;100120.88;;;12.13;59.64
62779;BME280;48821;48.796;2.396;2023-03-26T05:14:11;100127.03;;;12.12;59.66
62779;BME280;48821;48.796;2.396;2023-03-26T05:15:24;100117.44;;;12.11;59.49
62779;BME280;48821;48.796;2.396;2023-03-26T05:16:37;100120.97;;;12.10;60.09
62779;BME280;48821;48.796;2.396;2023-03-26T05:17:51;100129.84;;;12.09;59.75
62779;BME280;48821;48.796;2.396;2023-03-26T05:19:04;100129.84;;;12.09;59.15
62779;BME280;48821;48.796;2.396;2023-03-26T05:21:32;100128.06;;;12.10;59.77
62779;BME280;48821;48.796;2.396;2023-03-26T05:22:48;100128.97;;;12.09;59.36
62779;BME280;48821;48.796;2.396;2023-03-26T05:24:02;100142.22;;;12.07;59.38
62779;BME280;48821;48.796;2.396;2023-03-26T05:25:16;100141.38;;;12.07;59.22
62779;BME280;48821;48.796;2.396;2023-03-26T05:26:29;100142.16;;;12.09;59.70
62779;BME280;48821;48.796;2.396;2023-03-26T05:27:43;100139.59;;;12.07;59.51
62779;BME280;48821;48.796;2.396;2023-03-26T05:28:57;100140.59;;;12.04;59.31
62779;BME280;48821;48.796;2.396;2023-03-26T05:30:17;100145.00;;;12.04;59.09
62779;BME280;48821;48.796;2.396;2023-03-26T05:31:30;100152.06;;;12.03;59.63
62779;BME280;48821;48.796;2.396;2023-03-26T05:32:45;100146.88;;;12.02;60.16
62779;BME280;48821;48.796;2.396;2023-03-26T05:34:00;100154.78;;;12.02;59.70
62779;BME280;48821;48.796;2.396;2023-03-26T05:35:14;100147.72;;;12.02;59.37
62779;BME280;48821;48.796;2.396;2023-03-26T05:36:30;100145.16;;;12.01;59.29
62779;BME280;48821;48.796;2.396;2023-03-26T05:37:45;100147.78;;;12.01;59.42
62779;BME280;48821;48.796;2.396;2023-03-26T05:38:58;100146.88;;;12.02;59.33
62779;BME280;48821;48.796;2.396;2023-03-26T05:40:12;100152.06;;;12.03;59.79
62779;BME280;48821;48.796;2.396;2023-03-26T05:41:27;100150.28;;;12.04;59.49
62779;BME280;48821;48.796;2.396;2023-03-26T05:42:40;100154.59;;;12.05;59.42
62779;BME280;48821;48.796;2.396;2023-03-26T05:43:53;100152.81;;;12.06;59.54
62779;BME280;48821;48.796;2.396;2023-03-26T05:45:08;100153.69;;;12.06;59.67
62779;BME280;48821;48.796;2.396;2023-03-26T05:46:22;100167.78;;;12.05;59.56
62779;BME280;48821;48.796;2.396;2023-03-26T05:47:36;100158.94;;;12.06;59.23
62779;BME280;48821;48.796;2.396;2023-03-26T05:48:49;100154.59;;;12.05;59.10
62779;BME280;48821;48.796;2.396;2023-03-26T05:50:04;100155.53;;;12.04;58.96
62779;BME280;48821;48.796;2.396;2023-03-26T05:51:18;100153.00;;;12.02;59.27
62779;BME280;48821;48.796;2.396;2023-03-26T05:52:32;100152.91;;;12.04;59.30
62779;BME280;48821;48.796;2.396;2023-03-26T05:53:45;100159.09;;;12.03;59.58
62779;BME280;48821;48.796;2.396;2023-03-26T05:54:58;100156.41;;;12.04;59.58
62779;BME280;48821;48.796;2.396;2023-03-26T05:56:12;100156.31;;;12.06;59.68
62779;BME280;48821;48.796;2.396;2023-03-26T05:57:28;100152.81;;;12.06;59.61
62779;BME280;48821;48.796;2.396;2023-03-26T05:58:41;100146.69;;;12.05;59.33
62779;BME280;48821;48.796;2.396;2023-03-26T05:59:55;100149.28;;;12.07;58.62
62779;BME280;48821;48.796;2.396;2023-03-26T06:01:11;100145.00;;;12.04;58.81
62779;BME280;48821;48.796;2.396;2023-03-26T06:02:28;100142.38;;;12.04;58.84
62779;BME280;48821;48.796;2.396;2023-03-26T06:03:44;100151.19;;;12.03;58.82
62779;BME280;48821;48.796;2.396;2023-03-26T06:04:57;100142.47;;;12.02;58.91
62779;BME280;48821;48.796;2.396;2023-03-26T06:06:14;100146.78;;;12.03;59.09
62779;BME280;48821;48.796;2.396;2023-03-26T06:07:27;100145.00;;;12.04;59.22
62779;BME280;48821;48.796;2.396;2023-03-26T06:08:42;100145.00;;;12.04;59.32
62779;BME280;48821;48.796;2.396;2023-03-26T06:09:55;100145.00;;;12.04;59.16
62779;BME280;48821;48.796;2.396;2023-03-26T06:11:09;100153.81;;;12.03;59.11
62779;BME280;48821;48.796;2.396;2023-03-26T06:12:24;100148.56;;;12.03;58.72
62779;BME280;48821;48.796;2.396;2023-03-26T06:13:38;100160.91;;;12.02;58.89
62779;BME280;48821;48.796;2.396;2023-03-26T06:14:52;100159.09;;;12.03;59.06
62779;BME280;48821;48.796;2.396;2023-03-26T06:16:05;100163.44;;;12.04;58.85
62779;BME280;48821;48.796;2.396;2023-03-26T06:17:18;100165.22;;;12.03;58.59
62779;BME280;48821;48.796;2.396;2023-03-26T06:18:32;100165.22;;;12.03;58.77
62779;BME280;48821;48.796;2.396;2023-03-26T06:19:45;100169.63;;;12.03;58.50
62779;BME280;48821;48.796;2.396;2023-03-26T06:21:00;100160.03;;;12.02;58.58
62779;BME280;48821;48.796;2.396;2023-03-26T06:22:13;100155.53;;;12.04;58.89
62779;BME280;48821;48.796;2.396;2023-03-26T06:23:27;100169.63;;;12.03;58.86
62779;BME280;48821;48.796;2.396;2023-03-26T06:24:40;100172.34;;;12.01;58.35
62779;BME280;48821;48.796;2.396;2023-03-26T06:25:53;100170.63;;;12.00;58.46
62779;BME280;48821;48.796;2.396;2023-03-26T06:27:06;100167.16;;;12.00;58.66
62779;BME280;48821;48.796;2.396;2023-03-26T06:28:20;100168.94;;;11.99;58.59
62779;BME280;48821;48.796;2.396;2023-03-26T06:29:33;100177.69;;;12.00;58.89
62779;BME280;48821;48.796;2.396;2023-03-26T06:30:47;100169.81;;;12.00;59.07
62779;BME280;48821;48.796;2.396;2023-03-26T06:32:00;100170.56;;;12.02;59.14
62779;BME280;48821;48.796;2.396;2023-03-26T06:33:14;100176.69;;;12.02;58.90
62779;BME280;48821;48.796;2.396;2023-03-26T06:34:27;100166.06;;;12.04;59.00
62779;BME280;48821;48.796;2.396;2023-03-26T06:35:40;100158.25;;;12.02;58.85
62779;BME280;48821;48.796;2.396;2023-03-26T06:36:54;100172.25;;;12.03;58.70
62779;BME280;48821;48.796;2.396;2023-03-26T06:38:08;100173.97;;;12.04;58.34
62779;BME280;48821;48.796;2.396;2023-03-26T06:39:21;100167.84;;;12.03;58.61
62779;BME280;48821;48.796;2.396;2023-03-26T06:40:35;100174.91;;;12.03;58.72
62779;BME280;48821;48.796;2.396;2023-03-26T06:41:48;100167.84;;;12.03;58.51
62779;BME280;48821;48.796;2.396;2023-03-26T06:43:01;100173.13;;;12.03;58.77
62779;BME280;48821;48.796;2.396;2023-03-26T06:44:15;100176.63;;;12.04;58.76
62779;BME280;48821;48.796;2.396;2023-03-26T06:45:28;100169.47;;;12.06;58.88